Terminal Aerodrome Forecast
Issued by NWS Omaha/Valley, NE

Home | Current Version | Previous Version | Text Only | Print | Product List | Glossary Off
Versions: 1 2 3 4 5 6 7 8 9 10 11 12 13 14 15 16 17 18 19 20 21 22 23 24 25 26 27 28 29 30 31 32 33 34 35 36 37 38 39 40 41 42

000
FTUS43 KOAX 311728
TAFOFK
TAF
KOFK 311728Z 3118/0118 16009KT P6SM OVC009
      TEMPO 3118/3120 6SM -RA OVC006
     FM312100 08009KT 2SM -SNRA BR OVC005
     FM010200 03012KT 2SM -SN BR OVC005
     FM010700 01015G25KT 1SM -SN OVC004
     FM011200 35021G35KT P6SM OVC015
      TEMPO 0112/0115 6SM -SN OVC015=

USA.gov is the U.S. government's official web portal to all federal, state and local government web resources and services.